createdAt,value
2023-03-14T00:02:13.133Z,1.70
2023-03-14T00:04:40.669Z,1.70
2023-03-14T00:07:07.782Z,1.70
2023-03-14T00:09:34.877Z,1.70
2023-03-14T00:12:04.268Z,1.70
2023-03-14T00:14:32.802Z,1.60
2023-03-14T00:16:59.836Z,1.60
2023-03-14T00:19:26.963Z,1.70
2023-03-14T00:21:54.036Z,1.70
2023-03-14T00:24:21.321Z,1.60
2023-03-14T00:26:48.346Z,1.60
2023-03-14T00:29:15.460Z,1.60
2023-03-14T00:31:42.582Z,1.60
2023-03-14T00:34:09.902Z,1.50
2023-03-14T00:36:36.927Z,1.50
2023-03-14T00:39:04.370Z,1.50
2023-03-14T00:41:32.200Z,1.50
2023-03-14T00:44:01.274Z,1.50
2023-03-14T00:46:28.535Z,1.50
2023-03-14T00:48:55.617Z,1.50
2023-03-14T00:51:24.045Z,1.40
2023-03-14T00:53:51.716Z,1.40
2023-03-14T00:56:18.933Z,1.40
2023-03-14T00:58:46.293Z,1.40
2023-03-14T01:01:19.437Z,1.40
2023-03-14T01:03:47.650Z,1.40
2023-03-14T01:06:19.058Z,1.40
2023-03-14T01:08:47.096Z,1.40
2023-03-14T01:11:23.894Z,1.40
2023-03-14T01:13:51.932Z,1.40
2023-03-14T01:16:20.379Z,1.30
2023-03-14T01:18:48.761Z,1.30
2023-03-14T01:21:21.824Z,1.30
2023-03-14T01:23:50.064Z,1.30
2023-03-14T01:26:20.165Z,1.30
2023-03-14T01:28:48.633Z,1.30
2023-03-14T01:31:16.987Z,1.30
2023-03-14T01:33:45.870Z,1.30
2023-03-14T01:36:13.982Z,1.20
2023-03-14T01:38:42.874Z,1.20
2023-03-14T01:41:19.325Z,1.30
2023-03-14T01:43:46.781Z,1.30
2023-03-14T01:46:31.667Z,1.30
2023-03-14T01:49:08.481Z,1.30
2023-03-14T01:52:00.426Z,1.30
2023-03-14T01:54:38.786Z,1.20
2023-03-14T01:57:12.998Z,1.10
2023-03-14T01:59:43.546Z,1.20
2023-03-14T02:02:13.858Z,1.10
2023-03-14T02:04:42.522Z,1.10
2023-03-14T02:07:31.805Z,1.10
2023-03-14T02:10:09.429Z,1.10
2023-03-14T02:12:38.722Z,1.00
2023-03-14T02:15:26.468Z,1.00
2023-03-14T02:18:00.835Z,1.00
2023-03-14T02:21:10.419Z,1.00
2023-03-14T02:24:00.118Z,1.00
2023-03-14T02:26:41.730Z,0.90
2023-03-14T02:29:09.461Z,0.90
2023-03-14T02:31:36.933Z,0.90
2023-03-14T02:34:04.955Z,0.90
2023-03-14T02:36:33.658Z,0.90
2023-03-14T02:39:21.014Z,1.00
2023-03-14T02:41:50.266Z,1.00
2023-03-14T02:44:17.767Z,1.00
2023-03-14T02:46:45.047Z,0.90
2023-03-14T02:49:14.886Z,0.90
2023-03-14T02:51:44.268Z,0.90
2023-03-14T02:54:12.150Z,0.90
2023-03-14T02:56:39.437Z,0.90
2023-03-14T02:59:07.881Z,0.90
2023-03-14T03:01:51.416Z,0.90
2023-03-14T03:04:18.713Z,1.00
2023-03-14T03:06:47.268Z,1.00
2023-03-14T03:09:15.857Z,1.00
2023-03-14T03:11:43.123Z,0.90
2023-03-14T03:14:16.153Z,0.90
2023-03-14T03:16:43.448Z,0.80
2023-03-14T03:19:10.943Z,0.80
2023-03-14T03:21:38.100Z,0.80
2023-03-14T03:24:05.342Z,0.80
2023-03-14T03:26:36.190Z,0.80
2023-03-14T03:29:05.354Z,0.70
2023-03-14T03:31:32.699Z,0.70
2023-03-14T03:33:59.894Z,0.60
2023-03-14T03:36:28.959Z,0.60
2023-03-14T03:38:56.350Z,0.50
2023-03-14T03:41:25.105Z,0.60
2023-03-14T03:43:52.538Z,0.50
2023-03-14T03:46:20.092Z,0.50
2023-03-14T03:48:47.220Z,0.50
2023-03-14T03:51:15.908Z,0.50
2023-03-14T03:53:44.003Z,0.40
2023-03-14T03:56:14.154Z,0.40
2023-03-14T03:58:43.287Z,0.40
2023-03-14T04:01:11.844Z,0.40
2023-03-14T04:03:40.231Z,0.40
2023-03-14T04:06:13.373Z,0.40
2023-03-14T04:08:43.225Z,0.40
2023-03-14T04:11:14.839Z,0.40
2023-03-14T04:14:06.619Z,0.40
2023-03-14T04:16:35.024Z,0.50
2023-03-14T04:19:09.157Z,0.40
2023-03-14T04:21:37.055Z,0.40
2023-03-14T04:24:04.525Z,0.40
2023-03-14T04:26:34.460Z,0.40
2023-03-14T04:29:01.638Z,0.40
2023-03-14T04:31:29.286Z,0.40
2023-03-14T04:33:56.738Z,0.40
2023-03-14T04:36:31.405Z,0.30
2023-03-14T04:39:05.202Z,0.30
2023-03-14T04:41:33.780Z,0.30
2023-03-14T04:44:00.963Z,0.30
2023-03-14T04:46:28.556Z,0.30
2023-03-14T04:48:57.246Z,0.30
2023-03-14T04:51:28.356Z,0.30
2023-03-14T04:53:56.001Z,0.30
2023-03-14T04:56:23.498Z,0.20
2023-03-14T04:58:50.811Z,0.20
2023-03-14T05:01:19.017Z,0.20
2023-03-14T05:04:04.564Z,0.10
2023-03-14T05:06:50.011Z,0.10
2023-03-14T05:09:35.986Z,0.10
2023-03-14T05:12:22.107Z,0.10
2023-03-14T05:15:15.644Z,0.00
2023-03-14T05:18:03.179Z,0.00
2023-03-14T05:20:44.527Z,0.00
2023-03-14T05:23:43.596Z,0.00
2023-03-14T05:26:25.243Z,0.00
2023-03-14T05:29:15.608Z,0.00
2023-03-14T05:32:01.086Z,0.10
2023-03-14T05:34:51.142Z,0.10
2023-03-14T05:37:44.871Z,0.10
2023-03-14T05:40:35.931Z,0.10
2023-03-14T05:43:38.382Z,0.20
2023-03-14T05:46:32.239Z,0.20
2023-03-14T05:49:12.177Z,0.30
2023-03-14T05:52:12.155Z,0.20
2023-03-14T05:54:57.672Z,0.20
2023-03-14T05:57:38.162Z,0.30
2023-03-14T06:00:31.708Z,0.30
2023-03-14T06:03:13.046Z,0.20
2023-03-14T06:05:44.089Z,0.10
2023-03-14T06:08:11.551Z,0.20
2023-03-14T06:10:38.864Z,0.20
2023-03-14T06:13:07.599Z,0.10
2023-03-14T06:15:36.938Z,0.10
2023-03-14T06:18:04.664Z,0.20
2023-03-14T06:20:34.095Z,0.10
2023-03-14T06:23:01.742Z,0.10
2023-03-14T06:25:30.614Z,0.10
2023-03-14T06:27:57.787Z,0.10
2023-03-14T06:30:25.117Z,0.10
2023-03-14T06:32:53.385Z,0.10
2023-03-14T06:35:23.726Z,0.10
2023-03-14T06:37:50.880Z,0.10
2023-03-14T06:40:18.986Z,0.10
2023-03-14T06:42:52.076Z,0.10
2023-03-14T06:45:21.449Z,0.10
2023-03-14T06:47:48.914Z,0.10
2023-03-14T06:50:17.751Z,0.20
2023-03-14T06:52:49.155Z,0.20
2023-03-14T06:55:22.752Z,0.20
2023-03-14T06:57:51.532Z,0.20
2023-03-14T07:00:19.451Z,0.20
2023-03-14T07:02:46.722Z,0.20
2023-03-14T07:05:30.101Z,0.10
2023-03-14T07:07:57.739Z,0.20
2023-03-14T07:10:25.022Z,0.10
2023-03-14T07:12:53.806Z,0.20
2023-03-14T07:15:23.158Z,0.20
2023-03-14T07:17:56.460Z,0.20
2023-03-14T07:20:25.085Z,0.20
2023-03-14T07:22:52.910Z,0.20
2023-03-14T07:25:30.580Z,0.20
2023-03-14T07:27:57.994Z,0.20
2023-03-14T07:30:25.440Z,0.30
2023-03-14T07:32:53.200Z,0.30
2023-03-14T07:35:23.789Z,0.30
2023-03-14T07:37:51.097Z,0.40
2023-03-14T07:40:23.171Z,0.40
2023-03-14T07:42:51.134Z,0.40
2023-03-14T07:45:28.419Z,0.40
2023-03-14T07:47:58.621Z,0.50
2023-03-14T07:50:27.144Z,0.50
2023-03-14T07:52:56.412Z,0.50
2023-03-14T07:55:23.649Z,0.60
2023-03-14T07:57:50.816Z,0.60
2023-03-14T08:00:18.837Z,0.70
2023-03-14T08:02:46.082Z,0.70
2023-03-14T08:05:13.615Z,0.70
2023-03-14T08:07:40.943Z,0.80
2023-03-14T08:10:09.197Z,0.80
2023-03-14T08:12:36.256Z,0.80
2023-03-14T08:15:03.487Z,0.80
2023-03-14T08:17:30.666Z,0.90
2023-03-14T08:19:57.766Z,0.90
2023-03-14T08:22:24.871Z,0.90
2023-03-14T08:24:52.039Z,0.90
2023-03-14T08:27:19.101Z,1.00
2023-03-14T08:29:46.394Z,1.00
2023-03-14T08:32:13.799Z,1.00
2023-03-14T08:34:40.980Z,1.00
2023-03-14T08:37:16.435Z,1.10
2023-03-14T08:39:50.887Z,1.10
2023-03-14T08:42:19.206Z,1.10
2023-03-14T08:44:46.757Z,1.20
2023-03-14T08:47:14.111Z,1.20
2023-03-14T08:49:41.612Z,1.30
2023-03-14T08:52:10.218Z,1.30
2023-03-14T08:54:37.436Z,1.30
2023-03-14T08:57:04.538Z,1.30
2023-03-14T08:59:31.804Z,1.40
2023-03-14T09:01:58.923Z,1.40
2023-03-14T09:04:26.318Z,1.40
2023-03-14T09:06:53.737Z,1.40
2023-03-14T09:09:20.878Z,1.50
2023-03-14T09:11:48.059Z,1.60
2023-03-14T09:14:15.241Z,1.60
2023-03-14T09:16:42.583Z,1.70
2023-03-14T09:19:09.752Z,1.80
2023-03-14T09:21:37.406Z,1.90
2023-03-14T09:24:05.691Z,1.90
2023-03-14T09:26:32.974Z,1.90
2023-03-14T09:29:00.125Z,1.90
2023-03-14T09:31:28.404Z,1.90
2023-03-14T09:33:55.624Z,1.90
2023-03-14T09:36:22.806Z,1.90
2023-03-14T09:38:49.939Z,2.00
2023-03-14T09:41:30.374Z,2.00
2023-03-14T09:44:06.660Z,1.90
2023-03-14T09:46:38.084Z,1.60
2023-03-14T09:49:30.149Z,1.30
2023-03-14T09:52:01.891Z,1.20
2023-03-14T09:54:43.944Z,1.10
2023-03-14T09:57:17.623Z,0.90
2023-03-14T09:59:47.364Z,0.80
2023-03-14T10:02:25.174Z,0.60
2023-03-14T10:04:54.645Z,0.60
2023-03-14T10:07:40.011Z,0.60
2023-03-14T10:10:14.830Z,0.60
2023-03-14T10:12:43.187Z,0.60
2023-03-14T10:15:12.909Z,0.60
2023-03-14T10:17:42.802Z,0.60
2023-03-14T10:20:35.521Z,0.60
2023-03-14T10:23:13.892Z,0.60
2023-03-14T10:26:01.573Z,0.70
2023-03-14T10:28:52.471Z,0.70
2023-03-14T10:31:20.133Z,0.80
2023-03-14T10:34:07.262Z,0.90
2023-03-14T10:36:36.126Z,1.10
2023-03-14T10:39:27.658Z,1.20
2023-03-14T10:42:02.736Z,1.30
2023-03-14T10:44:31.340Z,1.50
2023-03-14T10:47:02.023Z,1.60
2023-03-14T10:49:33.286Z,1.70
2023-03-14T10:52:31.224Z,1.70
2023-03-14T10:55:10.713Z,1.80
2023-03-14T10:57:45.354Z,1.80
2023-03-14T11:00:24.422Z,1.90
2023-03-14T11:03:11.405Z,2.00
2023-03-14T11:05:44.649Z,2.10
2023-03-14T11:08:30.760Z,2.30
2023-03-14T11:11:30.330Z,2.30
2023-03-14T11:14:25.962Z,2.30
2023-03-14T11:17:02.462Z,2.30
2023-03-14T11:20:11.251Z,2.40
2023-03-14T11:22:48.162Z,2.40
2023-03-14T11:25:38.844Z,2.40
2023-03-14T11:28:37.072Z,2.40
2023-03-14T11:31:30.080Z,2.40
2023-03-14T11:34:31.642Z,2.40
2023-03-14T11:37:07.782Z,2.40
2023-03-14T11:39:50.296Z,2.50
2023-03-14T11:42:18.714Z,2.60
2023-03-14T11:44:49.432Z,2.70
2023-03-14T11:47:41.028Z,2.80
2023-03-14T11:50:27.820Z,2.80
2023-03-14T11:53:02.898Z,2.80
2023-03-14T11:55:38.113Z,2.90
2023-03-14T11:58:17.655Z,3.00
2023-03-14T12:00:47.036Z,3.00
2023-03-14T12:03:32.851Z,3.10
2023-03-14T12:06:34.981Z,3.10
2023-03-14T12:09:04.824Z,3.10
2023-03-14T12:11:45.098Z,3.10
2023-03-14T12:14:31.497Z,3.00
2023-03-14T12:17:10.682Z,3.00
2023-03-14T12:19:40.615Z,3.10
2023-03-14T12:22:13.747Z,3.30
2023-03-14T12:24:54.787Z,3.40
2023-03-14T12:27:45.148Z,3.50
2023-03-14T12:30:37.802Z,3.50
2023-03-14T12:33:11.603Z,3.40
2023-03-14T12:35:51.732Z,3.40
2023-03-14T12:38:24.877Z,3.50
2023-03-14T12:41:04.293Z,3.60
2023-03-14T12:43:34.361Z,3.70
2023-03-14T12:46:20.093Z,3.80
2023-03-14T12:49:01.765Z,3.90
2023-03-14T12:51:38.199Z,3.90
2023-03-14T12:54:19.463Z,3.80
2023-03-14T12:56:51.490Z,3.70
2023-03-14T12:59:39.270Z,3.60
2023-03-14T13:02:10.169Z,3.50
2023-03-14T13:04:44.710Z,3.30
2023-03-14T13:07:30.564Z,3.20
2023-03-14T13:12:55.203Z,2.80
2023-03-14T13:15:30.323Z,2.70
2023-03-14T13:18:10.180Z,2.60
2023-03-14T13:20:42.886Z,2.60
2023-03-14T13:23:28.294Z,2.50
2023-03-14T13:25:56.265Z,2.50
2023-03-14T13:28:24.045Z,2.50
2023-03-14T13:30:56.098Z,2.60
2023-03-14T13:33:25.142Z,2.60
2023-03-14T13:36:23.341Z,2.50
2023-03-14T13:39:00.968Z,2.50
2023-03-14T13:41:29.492Z,2.60
2023-03-14T13:44:09.041Z,2.70
2023-03-14T13:46:37.623Z,2.90
2023-03-14T13:49:07.275Z,3.10
2023-03-14T13:51:34.987Z,3.30
2023-03-14T13:54:04.193Z,3.50
2023-03-14T13:56:33.886Z,3.60
2023-03-14T13:59:01.414Z,3.70
2023-03-14T14:01:38.940Z,3.80
2023-03-14T14:04:17.052Z,3.90
2023-03-14T14:06:52.513Z,3.80
2023-03-14T14:09:25.201Z,3.80
2023-03-14T14:12:16.513Z,3.90
2023-03-14T14:14:58.847Z,4.00
2023-03-14T14:17:38.774Z,4.10
2023-03-14T14:20:12.615Z,4.20
2023-03-14T14:22:40.206Z,4.40
2023-03-14T14:25:07.780Z,4.40
2023-03-14T14:27:40.424Z,4.40
2023-03-14T14:30:28.147Z,4.30
2023-03-14T14:33:26.973Z,4.40
2023-03-14T14:36:02.005Z,4.40
2023-03-14T14:38:31.463Z,4.50
2023-03-14T14:41:03.993Z,4.60
2023-03-14T14:43:37.585Z,4.60
2023-03-14T14:46:10.295Z,4.60
2023-03-14T14:48:39.311Z,4.50
2023-03-14T14:51:08.750Z,4.40
2023-03-14T14:53:44.490Z,4.30
2023-03-14T14:56:21.598Z,3.50
2023-03-14T14:58:49.850Z,2.80
2023-03-14T15:01:32.105Z,2.60
2023-03-14T15:03:59.612Z,2.60
2023-03-14T15:06:30.411Z,2.70
2023-03-14T15:08:59.143Z,2.70
2023-03-14T15:11:28.086Z,2.80
2023-03-14T15:13:55.941Z,2.80
2023-03-14T15:16:31.070Z,2.40
2023-03-14T15:19:01.904Z,2.00
2023-03-14T15:21:31.477Z,1.70
2023-03-14T15:23:58.904Z,1.50
2023-03-14T15:26:28.136Z,1.30
2023-03-14T15:28:55.311Z,1.20
2023-03-14T15:31:23.250Z,1.20
2023-03-14T15:33:51.260Z,1.20
2023-03-14T15:36:28.737Z,1.30
2023-03-14T15:38:56.844Z,1.50
2023-03-14T15:41:24.456Z,1.60
2023-03-14T15:43:52.105Z,1.70
2023-03-14T15:46:19.569Z,1.80
2023-03-14T15:48:47.162Z,2.00
2023-03-14T15:51:15.011Z,2.10
2023-03-14T15:53:44.205Z,2.30
2023-03-14T15:56:19.984Z,2.40
2023-03-14T15:58:50.503Z,2.50
2023-03-14T16:01:18.228Z,2.70
2023-03-14T16:03:46.349Z,2.80
2023-03-14T16:06:14.801Z,2.90
2023-03-14T16:08:43.477Z,2.90
2023-03-14T16:11:12.786Z,2.90
2023-03-14T16:13:40.116Z,3.00
2023-03-14T16:16:08.686Z,3.00
2023-03-14T16:18:38.168Z,3.00
2023-03-14T16:21:08.382Z,3.00
2023-03-14T16:23:36.375Z,3.00
2023-03-14T16:26:11.503Z,3.00
2023-03-14T16:28:38.860Z,3.10
2023-03-14T16:31:12.417Z,3.10
2023-03-14T16:33:40.517Z,3.20
2023-03-14T16:36:10.888Z,3.20
2023-03-14T16:38:39.945Z,3.30
2023-03-14T16:41:19.217Z,3.30
2023-03-14T16:43:47.153Z,3.40
2023-03-14T16:46:20.225Z,3.40
2023-03-14T16:48:47.621Z,3.40
2023-03-14T16:51:16.583Z,3.40
2023-03-14T16:53:45.920Z,3.40
2023-03-14T16:56:14.360Z,3.40
2023-03-14T16:58:42.064Z,3.40
2023-03-14T17:01:14.533Z,3.30
2023-03-14T17:03:44.156Z,3.30
2023-03-14T17:06:16.974Z,3.30
2023-03-14T17:08:45.099Z,3.20
2023-03-14T17:11:12.513Z,3.20
2023-03-14T17:13:39.874Z,3.20
2023-03-14T17:16:07.998Z,3.10
2023-03-14T17:18:36.621Z,3.10
2023-03-14T17:21:04.377Z,3.00
2023-03-14T17:23:32.781Z,3.00
2023-03-14T17:26:00.703Z,2.90
2023-03-14T17:28:28.970Z,2.90
2023-03-14T17:31:11.488Z,2.90
2023-03-14T17:33:38.888Z,3.00
2023-03-14T17:36:07.187Z,3.00
2023-03-14T17:38:38.000Z,2.90
2023-03-14T17:41:09.885Z,2.90
2023-03-14T17:43:37.990Z,2.80
2023-03-14T17:46:11.992Z,2.60
2023-03-14T17:48:39.655Z,2.50
2023-03-14T17:51:07.328Z,2.40
2023-03-14T17:53:34.783Z,2.30
2023-03-14T17:56:01.992Z,2.20
2023-03-14T17:58:31.050Z,2.20
2023-03-14T18:00:58.434Z,2.10
2023-03-14T18:03:25.762Z,2.00
2023-03-14T18:05:53.152Z,2.00
2023-03-14T18:08:20.549Z,1.90
2023-03-14T18:10:47.730Z,1.90
2023-03-14T18:13:15.015Z,1.90
2023-03-14T18:15:42.211Z,1.90
2023-03-14T18:18:09.571Z,1.90
2023-03-14T18:20:36.732Z,1.80
2023-03-14T18:23:04.071Z,1.90
2023-03-14T18:25:31.414Z,1.90
2023-03-14T18:27:58.684Z,1.80
2023-03-14T18:30:26.646Z,1.80
2023-03-14T18:32:53.914Z,1.80
2023-03-14T18:35:20.984Z,1.70
2023-03-14T18:37:48.234Z,1.70
2023-03-14T18:40:17.509Z,1.70
2023-03-14T18:42:44.727Z,1.70
2023-03-14T18:45:12.587Z,1.60
2023-03-14T18:47:40.163Z,1.70
2023-03-14T18:50:09.065Z,1.70
2023-03-14T18:52:36.642Z,1.70
2023-03-14T18:55:04.271Z,1.70
2023-03-14T18:57:31.938Z,1.70
2023-03-14T18:59:59.157Z,1.80
2023-03-14T19:02:26.758Z,1.80
2023-03-14T19:04:54.076Z,1.80
2023-03-14T19:07:23.836Z,1.90
2023-03-14T19:09:51.109Z,1.90
2023-03-14T19:12:19.174Z,1.90
2023-03-14T19:14:46.735Z,2.00
2023-03-14T19:17:13.974Z,2.00
2023-03-14T19:19:41.189Z,2.00
2023-03-14T19:22:08.417Z,2.10
2023-03-14T19:24:35.864Z,2.10
2023-03-14T19:27:03.184Z,2.10
2023-03-14T19:29:30.559Z,2.10
2023-03-14T19:31:58.230Z,2.10
2023-03-14T19:34:25.573Z,2.10
2023-03-14T19:36:52.972Z,2.20
2023-03-14T19:39:20.225Z,2.20
2023-03-14T19:41:47.564Z,2.20
2023-03-14T19:44:14.712Z,2.30
2023-03-14T19:46:41.950Z,2.30
2023-03-14T19:49:09.205Z,2.20
2023-03-14T19:51:36.502Z,2.20
2023-03-14T19:54:05.179Z,2.20
2023-03-14T19:56:33.509Z,2.20
2023-03-14T19:59:03.526Z,2.20
2023-03-14T20:01:31.836Z,2.20
2023-03-14T20:03:59.094Z,2.20
2023-03-14T20:06:26.335Z,2.20
2023-03-14T20:08:53.563Z,2.20
2023-03-14T20:11:20.936Z,2.10
2023-03-14T20:13:50.190Z,2.10
2023-03-14T20:16:17.431Z,2.10
2023-03-14T20:18:44.721Z,2.10
2023-03-14T20:21:13.850Z,2.10
2023-03-14T20:23:43.727Z,2.10
2023-03-14T20:26:11.345Z,2.10
2023-03-14T20:28:38.709Z,2.00
2023-03-14T20:31:09.054Z,2.00
2023-03-14T20:33:36.521Z,2.00
2023-03-14T20:36:04.021Z,2.00
2023-03-14T20:38:31.680Z,2.00
2023-03-14T20:41:00.439Z,2.00
2023-03-14T20:43:28.967Z,2.00
2023-03-14T20:45:58.841Z,2.00
2023-03-14T20:48:28.464Z,2.00
2023-03-14T20:50:56.316Z,2.00
2023-03-14T20:53:23.723Z,2.00
2023-03-14T20:55:52.195Z,2.10
2023-03-14T20:58:19.546Z,2.10
2023-03-14T21:00:48.751Z,2.10
2023-03-14T21:03:17.334Z,2.00
2023-03-14T21:05:48.930Z,2.10
2023-03-14T21:08:18.361Z,2.10
2023-03-14T21:10:50.047Z,2.10
2023-03-14T21:13:17.517Z,2.10
2023-03-14T21:15:44.941Z,2.10
2023-03-14T21:18:12.383Z,2.00
2023-03-14T21:20:41.377Z,2.10
2023-03-14T21:23:09.557Z,2.00
2023-03-14T21:25:36.859Z,2.00
2023-03-14T21:28:05.532Z,2.00
2023-03-14T21:30:34.456Z,2.00
2023-03-14T21:33:02.074Z,2.00
2023-03-14T21:35:29.761Z,2.00
2023-03-14T21:37:57.280Z,2.00
2023-03-14T21:40:24.748Z,2.00
2023-03-14T21:42:55.597Z,2.00
2023-03-14T21:45:26.916Z,2.00
2023-03-14T21:47:55.553Z,2.00
2023-03-14T21:50:25.017Z,2.00
2023-03-14T21:52:56.652Z,2.10
2023-03-14T21:55:25.696Z,2.00
2023-03-14T21:57:55.448Z,2.10
2023-03-14T22:00:26.088Z,2.10
2023-03-14T22:03:11.820Z,2.10
2023-03-14T22:05:44.283Z,2.10
2023-03-14T22:08:12.477Z,2.10
2023-03-14T22:11:06.935Z,2.10
2023-03-14T22:13:39.310Z,2.10
2023-03-14T22:16:08.046Z,2.10
2023-03-14T22:18:35.571Z,2.10
2023-03-14T22:21:02.767Z,2.10
2023-03-14T22:23:29.946Z,2.20
2023-03-14T22:25:57.287Z,2.20
2023-03-14T22:28:24.812Z,2.20
2023-03-14T22:30:52.428Z,2.20
2023-03-14T22:33:20.129Z,2.20
2023-03-14T22:35:53.608Z,2.30
2023-03-14T22:38:21.076Z,2.20
2023-03-14T22:40:48.714Z,2.30
2023-03-14T22:43:16.174Z,2.30
2023-03-14T22:45:43.372Z,2.30
2023-03-14T22:48:11.091Z,2.20
2023-03-14T22:50:40.102Z,2.30
2023-03-14T22:53:07.344Z,2.20
2023-03-14T22:55:34.520Z,2.20
2023-03-14T22:58:02.215Z,2.20
2023-03-14T23:00:30.424Z,2.20
2023-03-14T23:02:57.721Z,2.20
2023-03-14T23:05:24.910Z,2.20
2023-03-14T23:07:53.458Z,2.20
2023-03-14T23:10:20.677Z,2.10
2023-03-14T23:17:13.784Z,2.10
2023-03-14T23:19:40.982Z,2.10
2023-03-14T23:22:09.894Z,2.10
2023-03-14T23:24:37.473Z,2.10
2023-03-14T23:27:04.622Z,2.10
2023-03-14T23:29:31.757Z,2.10
2023-03-14T23:31:58.968Z,2.10
2023-03-14T23:34:26.778Z,2.10
2023-03-14T23:36:54.248Z,2.10
2023-03-14T23:39:21.504Z,2.10
2023-03-14T23:41:48.784Z,2.10
2023-03-14T23:44:16.420Z,2.10
2023-03-14T23:46:43.750Z,2.10
2023-03-14T23:49:13.204Z,2.00
2023-03-14T23:51:40.362Z,2.00
2023-03-14T23:54:07.497Z,2.00
2023-03-14T23:56:34.663Z,2.00
2023-03-14T23:59:01.863Z,2.00
